Time;durP1;ratioP1;P1;durP2;ratioP2;P2;SDS_P1;SDS_P2;PMS_P1;PMS_P2;Temp;Humidity;BMP_temperature;BMP_pressure;BME280_temperature;BME280_humidity;BME280_pressure;Samples;Min_cycle;Max_cycle;Signal;HPM_P1;HPM_P2
2022/01/14 00:02:05;;;;;;;40.83;18.70;;;2.00;99.90;;;;;;5031938;28;20316;-76
2022/01/14 00:04:31;;;;;;;61.33;19.10;;;2.00;99.90;;;;;;5031188;28;20195;-76
2022/01/14 00:06:57;;;;;;;56.40;17.80;;;1.90;99.90;;;;;;5031612;28;20559;-76
2022/01/14 00:09:22;;;;;;;44.83;17.53;;;1.90;99.90;;;;;;5032865;28;20223;-77
2022/01/14 00:11:54;;;;;;;69.80;18.33;;;2.00;99.90;;;;;;5032992;28;20204;-76
2022/01/14 00:14:36;;;;;;;51.87;18.67;;;1.90;99.90;;;;;;5032630;28;20578;-77
2022/01/14 00:17:07;;;;;;;54.87;19.33;;;1.90;99.90;;;;;;5031540;28;20180;-77
2022/01/14 00:19:34;;;;;;;66.33;19.17;;;1.90;99.90;;;;;;5031494;28;20184;-77
2022/01/14 00:22:05;;;;;;;50.63;19.13;;;1.90;99.90;;;;;;5032861;28;20662;-77
2022/01/14 00:31:38;;;;;;;43.43;19.17;;;1.90;99.90;;;;;;5032431;28;20176;-76
2022/01/14 00:32:58;;;;;;;46.27;17.83;;;2.00;99.90;;;;;;5032451;28;20287;-77
2022/01/14 00:35:23;;;;;;;82.57;18.87;;;2.00;99.90;;;;;;5032400;28;20176;-78
2022/01/14 00:37:49;;;;;;;42.40;17.47;;;2.00;99.90;;;;;;5032823;28;20238;-76
2022/01/14 00:40:15;;;;;;;47.00;19.47;;;2.00;99.90;;;;;;5031312;28;20602;-77
2022/01/14 00:42:40;;;;;;;42.67;18.93;;;2.00;99.90;;;;;;5031211;28;20670;-77
2022/01/14 00:45:07;;;;;;;37.87;19.00;;;2.00;99.90;;;;;;5032219;28;20283;-79
2022/01/14 00:47:34;;;;;;;40.00;19.07;;;2.00;99.90;;;;;;5013591;28;20532;-77
2022/01/14 00:50:00;;;;;;;39.10;19.23;;;2.00;99.90;;;;;;5013033;28;20674;-77
2022/01/14 00:52:26;;;;;;;52.63;19.53;;;2.00;99.90;;;;;;5011378;28;20228;-77
2022/01/14 00:54:51;;;;;;;59.90;15.87;;;2.00;99.90;;;;;;5012949;28;20181;-77
2022/01/14 00:57:28;;;;;;;50.37;14.83;;;2.00;99.90;;;;;;5028950;28;20188;-78
2022/01/14 00:59:54;;;;;;;40.30;15.13;;;1.90;99.90;;;;;;5032467;28;20159;-77
2022/01/14 01:02:20;;;;;;;65.03;16.30;;;1.90;99.90;;;;;;5032270;28;20215;-77
2022/01/14 01:04:48;;;;;;;71.70;16.47;;;1.80;99.90;;;;;;5031007;28;20208;-76
2022/01/14 01:07:14;;;;;;;55.87;17.83;;;1.80;99.90;;;;;;5032595;28;20661;-77
2022/01/14 01:09:46;;;;;;;46.90;17.70;;;1.80;99.90;;;;;;5034616;28;20267;-77
2022/01/14 01:12:31;;;;;;;53.80;18.97;;;1.80;99.90;;;;;;5034506;28;20258;-78
2022/01/14 01:15:07;;;;;;;49.27;18.90;;;1.80;99.90;;;;;;5033865;28;20187;-77
2022/01/14 01:17:34;;;;;;;44.37;19.67;;;1.80;99.90;;;;;;5036073;28;20172;-77
2022/01/14 01:20:00;;;;;;;42.70;19.30;;;1.90;99.90;;;;;;5034417;28;20192;-77
2022/01/14 01:22:26;;;;;;;65.27;19.67;;;1.80;99.90;;;;;;5035606;28;20290;-77
2022/01/14 01:24:51;;;;;;;52.27;18.43;;;1.90;99.90;;;;;;5033929;28;20311;-77
2022/01/14 01:27:19;;;;;;;53.50;17.70;;;1.80;99.90;;;;;;5035513;28;20354;-77
2022/01/14 01:30:10;;;;;;;41.20;17.33;;;1.90;99.90;;;;;;5034226;28;20207;-77
2022/01/14 01:32:37;;;;;;;35.47;15.00;;;1.80;99.90;;;;;;5034135;28;20208;-77
2022/01/14 01:35:02;;;;;;;51.27;15.67;;;1.90;99.90;;;;;;5034150;28;20185;-77
2022/01/14 01:37:28;;;;;;;31.93;15.07;;;1.80;99.90;;;;;;5034809;28;20250;-77
2022/01/14 01:39:53;;;;;;;36.83;16.50;;;1.80;99.90;;;;;;5035320;28;20176;-76
2022/01/14 01:42:26;;;;;;;30.37;15.50;;;1.80;99.90;;;;;;5035281;28;20685;-77
2022/01/14 01:44:52;;;;;;;45.00;17.20;;;1.80;99.90;;;;;;5034172;28;20208;-77
2022/01/14 01:47:19;;;;;;;41.57;17.57;;;1.80;99.90;;;;;;5035242;28;20194;-77
2022/01/14 01:49:45;;;;;;;42.30;16.53;;;1.80;99.90;;;;;;5034127;28;20506;-77
2022/01/14 01:52:10;;;;;;;36.97;14.73;;;1.80;99.90;;;;;;5034999;28;20197;-77
2022/01/14 01:54:36;;;;;;;37.10;14.07;;;1.80;99.90;;;;;;5034988;28;20552;-77
2022/01/14 01:57:02;;;;;;;49.23;15.37;;;1.80;99.90;;;;;;5033420;28;20189;-77
2022/01/14 01:59:29;;;;;;;38.20;14.70;;;1.70;99.90;;;;;;5034871;28;20184;-78
2022/01/14 02:01:57;;;;;;;32.83;14.70;;;1.70;99.90;;;;;;5034847;28;20298;-77
2022/01/14 02:04:23;;;;;;;48.63;14.53;;;1.70;99.90;;;;;;5034445;28;20180;-78
2022/01/14 02:06:51;;;;;;;39.83;14.97;;;1.70;99.90;;;;;;5033298;28;20231;-76
2022/01/14 02:09:17;;;;;;;37.13;15.27;;;1.70;99.90;;;;;;5034818;28;20183;-77
2022/01/14 02:11:42;;;;;;;33.43;15.03;;;1.70;99.90;;;;;;5034637;28;20271;-77
2022/01/14 02:14:28;;;;;;;95.80;15.83;;;1.70;99.90;;;;;;5033086;28;20195;-77
2022/01/14 02:19:42;;;;;;;31.50;13.77;;;1.70;99.90;;;;;;5033617;28;20575;-77
2022/01/14 02:22:14;;;;;;;62.87;13.63;;;1.70;99.90;;;;;;5033197;28;20200;-77
2022/01/14 02:27:11;;;;;;;50.67;14.23;;;1.70;99.90;;;;;;5034410;28;20279;-77
2022/01/14 02:29:37;;;;;;;33.13;13.77;;;1.70;99.90;;;;;;5034645;28;20646;-77
2022/01/14 02:32:03;;;;;;;66.60;14.27;;;1.80;99.90;;;;;;5034512;28;20314;-77
2022/01/14 02:34:29;;;;;;;66.13;14.60;;;1.80;99.90;;;;;;5032986;28;20184;-77
2022/01/14 02:36:56;;;;;;;58.67;14.93;;;1.70;99.90;;;;;;5032702;28;20673;-77
2022/01/14 02:39:21;;;;;;;51.67;14.17;;;1.70;99.90;;;;;;5034098;28;20271;-77
2022/01/14 02:41:51;;;;;;;54.07;13.93;;;1.70;99.90;;;;;;5032823;28;20243;-77
2022/01/14 02:44:23;;;;;;;43.40;14.87;;;1.70;99.90;;;;;;5032824;28;20191;-78
2022/01/14 02:46:58;;;;;;;44.97;14.27;;;1.70;99.90;;;;;;5032730;28;20207;-76
2022/01/14 02:49:28;;;;;;;38.47;14.97;;;1.70;99.90;;;;;;5033703;28;20172;-77
2022/01/14 02:51:55;;;;;;;60.23;14.30;;;1.80;99.90;;;;;;5033938;28;20196;-77
2022/01/14 02:54:24;;;;;;;54.70;13.63;;;1.80;99.90;;;;;;5033963;28;20186;-77
2022/01/14 02:56:52;;;;;;;53.07;14.50;;;1.80;99.90;;;;;;5033874;28;20649;-77
2022/01/14 02:59:19;;;;;;;63.80;14.67;;;1.70;99.90;;;;;;5033827;28;20184;-77
2022/01/14 03:01:46;;;;;;;47.07;14.23;;;1.80;99.90;;;;;;5032523;28;20697;-79
2022/01/14 03:04:15;;;;;;;49.27;14.33;;;1.70;99.90;;;;;;5033862;28;20183;-77
2022/01/14 03:06:41;;;;;;;47.80;14.53;;;1.70;99.90;;;;;;5032345;28;20212;-77
2022/01/14 03:09:07;;;;;;;39.07;14.87;;;1.80;99.90;;;;;;5033423;28;20185;-77
2022/01/14 03:11:35;;;;;;;61.83;15.27;;;1.80;99.90;;;;;;5032117;28;20210;-77
2022/01/14 03:14:02;;;;;;;37.90;14.10;;;1.70;99.90;;;;;;5033234;28;20188;-77
2022/01/14 03:16:29;;;;;;;40.27;15.83;;;1.80;99.90;;;;;;5032239;28;20191;-79
2022/01/14 03:19:05;;;;;;;63.83;16.30;;;1.70;99.90;;;;;;5032214;28;20199;-77
2022/01/14 03:21:36;;;;;;;44.13;15.23;;;1.80;99.90;;;;;;5032145;28;20208;-77
2022/01/14 03:24:14;;;;;;;38.23;16.20;;;1.80;99.90;;;;;;5033317;28;20662;-75
2022/01/14 03:26:39;;;;;;;37.73;15.47;;;1.70;99.90;;;;;;5033496;28;20286;-77
2022/01/14 03:29:05;;;;;;;44.40;15.70;;;1.70;99.90;;;;;;5033080;28;20223;-77
2022/01/14 03:31:30;;;;;;;34.83;16.60;;;1.80;99.90;;;;;;5033181;28;20204;-77
2022/01/14 03:33:56;;;;;;;39.73;17.10;;;1.70;99.90;;;;;;5031910;28;20562;-77
2022/01/14 03:36:21;;;;;;;41.80;17.00;;;1.70;99.90;;;;;;5033181;28;20195;-76
2022/01/14 03:38:47;;;;;;;73.60;18.70;;;1.70;99.90;;;;;;5033464;28;20183;-77
2022/01/14 03:41:12;;;;;;;43.20;19.37;;;1.70;99.90;;;;;;5033066;28;20246;-77
2022/01/14 03:43:40;;;;;;;56.90;19.60;;;1.70;99.90;;;;;;5032958;28;20230;-78
2022/01/14 03:46:06;;;;;;;46.67;18.57;;;1.70;99.90;;;;;;5033064;28;20200;-77
2022/01/14 03:48:31;;;;;;;47.83;19.43;;;1.70;99.90;;;;;;5033242;28;20642;-77
2022/01/14 03:50:57;;;;;;;43.00;21.33;;;1.70;99.90;;;;;;5031808;28;20187;-77
2022/01/14 03:53:22;;;;;;;59.30;21.27;;;1.70;99.90;;;;;;5032949;28;20200;-77
2022/01/14 03:55:48;;;;;;;46.77;19.60;;;1.70;99.90;;;;;;5031561;28;20275;-76
2022/01/14 03:58:13;;;;;;;39.60;20.07;;;1.70;99.90;;;;;;5031493;28;20214;-76
2022/01/14 04:00:39;;;;;;;34.07;20.13;;;1.70;99.90;;;;;;5031417;28;20188;-76
2022/01/14 04:03:06;;;;;;;72.90;23.07;;;1.70;99.90;;;;;;5032304;28;20223;-77
2022/01/14 04:05:32;;;;;;;73.90;21.50;;;1.70;99.90;;;;;;5032675;28;20219;-76
2022/01/14 04:07:58;;;;;;;56.10;21.30;;;1.70;99.90;;;;;;5032737;28;20176;-77
2022/01/14 04:10:25;;;;;;;55.40;21.87;;;1.70;99.90;;;;;;5032852;28;20657;-77
2022/01/14 04:12:58;;;;;;;64.87;21.63;;;1.70;99.90;;;;;;5033028;28;20204;-76
2022/01/14 04:15:45;;;;;;;55.23;23.47;;;1.60;99.90;;;;;;5032968;28;20234;-77
2022/01/14 04:18:19;;;;;;;79.27;20.33;;;1.70;99.90;;;;;;5032819;28;20163;-77
2022/01/14 04:20:48;;;;;;;56.17;21.23;;;1.60;99.90;;;;;;5032681;28;20214;-78
2022/01/14 04:23:15;;;;;;;70.00;21.57;;;1.60;99.90;;;;;;5032385;28;20199;-78
2022/01/14 04:25:41;;;;;;;46.13;22.60;;;1.60;99.90;;;;;;5032629;28;20207;-76
2022/01/14 04:28:09;;;;;;;74.67;22.80;;;1.60;99.90;;;;;;5032638;28;20195;-77
2022/01/14 04:30:35;;;;;;;47.73;23.73;;;1.60;99.90;;;;;;5032706;28;20164;-76
2022/01/14 04:33:02;;;;;;;52.37;21.70;;;1.60;99.90;;;;;;5032629;28;20700;-77
2022/01/14 04:35:28;;;;;;;64.57;21.83;;;1.60;99.90;;;;;;5047545;28;20604;-77
2022/01/14 04:37:54;;;;;;;83.37;21.77;;;1.60;99.90;;;;;;5032603;28;20220;-77
2022/01/14 04:40:20;;;;;;;50.90;22.00;;;1.70;99.90;;;;;;5032599;28;20203;-77
2022/01/14 04:42:46;;;;;;;64.13;20.90;;;1.60;99.90;;;;;;5035282;28;20223;-77
2022/01/14 04:45:26;;;;;;;58.43;23.23;;;1.70;99.90;;;;;;5034872;28;20200;-77
2022/01/14 04:47:52;;;;;;;58.77;21.13;;;1.60;99.90;;;;;;5036432;28;20669;-77
2022/01/14 04:50:20;;;;;;;48.47;20.60;;;1.70;99.90;;;;;;5036221;28;20188;-77
2022/01/14 04:52:47;;;;;;;86.63;21.10;;;1.70;99.90;;;;;;5034862;28;20200;-77
2022/01/14 04:55:17;;;;;;;53.57;17.13;;;1.60;99.90;;;;;;5036066;28;20202;-77
2022/01/14 04:57:43;;;;;;;70.47;17.30;;;1.60;99.90;;;;;;5036104;28;20268;-77
2022/01/14 05:00:15;;;;;;;43.30;14.70;;;1.60;99.90;;;;;;5036219;28;20186;-77
2022/01/14 05:02:41;;;;;;;39.53;15.83;;;1.50;99.90;;;;;;5035862;28;20214;-77
2022/01/14 05:05:08;;;;;;;44.37;14.73;;;1.50;99.90;;;;;;5035604;28;20286;-77
2022/01/14 05:07:34;;;;;;;50.23;15.03;;;1.60;99.90;;;;;;5035948;28;20676;-77
2022/01/14 05:12:33;;;;;;;37.23;15.77;;;1.60;99.90;;;;;;5035792;28;20543;-77
2022/01/14 05:14:59;;;;;;;55.13;16.00;;;1.50;99.90;;;;;;5034271;28;20188;-76
2022/01/14 05:17:25;;;;;;;42.73;14.20;;;1.50;99.90;;;;;;5034517;28;20241;-77
2022/01/14 05:19:51;;;;;;;63.60;14.87;;;1.40;99.90;;;;;;5035586;28;20270;-76
2022/01/14 05:22:17;;;;;;;54.70;14.67;;;1.30;99.90;;;;;;5035718;28;20292;-76
2022/01/14 05:24:44;;;;;;;37.40;16.03;;;1.40;99.90;;;;;;5035203;28;20277;-76
2022/01/14 05:27:09;;;;;;;46.90;16.17;;;1.40;99.90;;;;;;5034276;28;20653;-76
2022/01/14 05:29:35;;;;;;;33.07;14.63;;;1.40;99.90;;;;;;5035537;28;20230;-75
2022/01/14 05:32:05;;;;;;;64.17;16.20;;;1.40;99.90;;;;;;5034184;28;20253;-75
2022/01/14 05:34:35;;;;;;;56.93;15.17;;;1.40;99.90;;;;;;5035171;28;20693;-76
2022/01/14 05:37:03;;;;;;;43.00;17.13;;;1.40;99.90;;;;;;5034076;28;20188;-76
2022/01/14 05:39:29;;;;;;;35.53;16.60;;;1.40;99.90;;;;;;5034615;28;20188;-76
2022/01/14 05:41:55;;;;;;;29.57;15.57;;;1.50;99.90;;;;;;5035204;28;20195;-76
2022/01/14 05:44:23;;;;;;;51.60;20.37;;;1.50;99.90;;;;;;5035439;28;20732;-76
2022/01/14 05:46:50;;;;;;;39.00;16.73;;;1.60;99.90;;;;;;5034309;28;20631;-76
2022/01/14 05:49:15;;;;;;;51.67;16.80;;;1.60;99.90;;;;;;5033940;28;20277;-76
2022/01/14 05:51:41;;;;;;;56.90;17.17;;;1.60;99.90;;;;;;5034988;28;20238;-76
2022/01/14 05:54:06;;;;;;;45.57;17.73;;;1.60;99.90;;;;;;5034710;28;20188;-76
2022/01/14 05:56:32;;;;;;;32.83;17.70;;;1.60;99.90;;;;;;5034978;28;20191;-76
2022/01/14 05:58:58;;;;;;;37.17;17.87;;;1.60;99.90;;;;;;5034941;28;20211;-76
2022/01/14 06:01:23;;;;;;;61.03;19.33;;;1.60;99.90;;;;;;5034724;28;20544;-76
2022/01/14 06:03:49;;;;;;;47.53;18.77;;;1.60;99.90;;;;;;5059264;22;20247;-77
2022/01/14 06:06:14;;;;;;;40.67;19.13;;;1.60;99.90;;;;;;5034905;28;20208;-76
2022/01/14 06:08:40;;;;;;;39.40;18.00;;;1.60;99.90;;;;;;5036554;28;20638;-77
2022/01/14 06:11:05;;;;;;;50.00;18.53;;;1.60;99.90;;;;;;5022108;28;20193;-79
2022/01/14 06:13:32;;;;;;;59.93;17.40;;;1.60;99.90;;;;;;5044788;28;20270;-77
2022/01/14 06:15:57;;;;;;;40.33;16.97;;;1.60;99.90;;;;;;5034800;28;20661;-77
2022/01/14 06:18:23;;;;;;;50.87;19.47;;;1.60;99.90;;;;;;5034603;28;20188;-78
2022/01/14 06:20:49;;;;;;;50.90;18.90;;;1.60;99.90;;;;;;5035018;28;20184;-78
2022/01/14 06:23:14;;;;;;;43.03;18.47;;;1.60;99.90;;;;;;5034742;28;20226;-77
2022/01/14 06:25:40;;;;;;;44.40;18.30;;;1.60;99.90;;;;;;5035092;28;20250;-77
2022/01/14 06:28:06;;;;;;;35.97;18.93;;;1.70;99.90;;;;;;5034633;28;20749;-78
2022/01/14 06:30:31;;;;;;;38.63;19.87;;;1.70;99.90;;;;;;5034599;28;20199;-77
2022/01/14 06:32:57;;;;;;;43.27;19.73;;;1.70;99.90;;;;;;5034348;28;20203;-78
2022/01/14 06:35:23;;;;;;;43.93;19.50;;;1.70;99.90;;;;;;5034373;28;20184;-77
2022/01/14 06:37:49;;;;;;;53.33;20.33;;;1.70;99.90;;;;;;5016554;28;20188;-77
2022/01/14 06:40:16;;;;;;;53.47;20.37;;;1.70;99.90;;;;;;5016433;28;20286;-77
2022/01/14 06:42:42;;;;;;;43.97;19.67;;;1.70;99.90;;;;;;5034050;28;20692;-77
2022/01/14 06:45:08;;;;;;;53.03;21.37;;;1.60;99.90;;;;;;5016289;28;20204;-77
2022/01/14 06:47:33;;;;;;;41.97;19.30;;;1.70;99.90;;;;;;5016210;28;20276;-77
2022/01/14 06:49:59;;;;;;;55.57;19.97;;;1.70;99.90;;;;;;5034247;28;20319;-76
2022/01/14 06:52:25;;;;;;;59.30;21.23;;;1.70;99.90;;;;;;5033885;28;20271;-77
2022/01/14 06:54:51;;;;;;;47.20;19.10;;;1.70;99.90;;;;;;5016184;28;20195;-76
2022/01/14 06:57:17;;;;;;;62.23;21.10;;;1.70;99.90;;;;;;5034048;28;20180;-77
2022/01/14 06:59:42;;;;;;;48.37;22.23;;;1.70;99.90;;;;;;5016066;28;20180;-77
2022/01/14 07:02:10;;;;;;;44.73;21.17;;;1.70;99.90;;;;;;5033682;28;20645;-77
2022/01/14 07:04:36;;;;;;;57.00;24.40;;;1.70;99.90;;;;;;5033274;28;20190;-77
2022/01/14 07:07:02;;;;;;;50.57;23.10;;;1.70;99.90;;;;;;5016059;28;20190;-77
2022/01/14 07:09:30;;;;;;;58.20;21.93;;;1.70;99.90;;;;;;5033643;28;20180;-77
2022/01/14 07:11:58;;;;;;;54.57;22.47;;;1.70;99.90;;;;;;5015872;28;20194;-77
2022/01/14 07:14:24;;;;;;;60.73;23.30;;;1.70;99.90;;;;;;5015700;28;20258;-77
2022/01/14 07:16:49;;;;;;;49.20;22.70;;;1.70;99.90;;;;;;5033503;28;20192;-77
2022/01/14 07:19:18;;;;;;;42.43;21.47;;;1.70;99.90;;;;;;5015796;28;20190;-77
2022/01/14 07:21:43;;;;;;;48.20;22.20;;;1.70;99.90;;;;;;5033426;28;20180;-77
2022/01/14 07:24:10;;;;;;;42.23;22.50;;;1.70;99.90;;;;;;5033415;28;20685;-77
2022/01/14 07:26:36;;;;;;;52.27;23.40;;;1.80;99.90;;;;;;5033277;28;20681;-77
2022/01/14 07:29:02;;;;;;;60.20;23.43;;;1.70;99.90;;;;;;5015664;28;20269;-77
2022/01/14 07:31:28;;;;;;;51.67;23.37;;;1.80;99.90;;;;;;5033581;28;20184;-77
2022/01/14 07:33:53;;;;;;;61.40;23.30;;;1.70;99.90;;;;;;5033290;28;20222;-77
2022/01/14 07:36:19;;;;;;;48.40;23.53;;;1.80;99.90;;;;;;5033192;28;20188;-77
2022/01/14 07:38:44;;;;;;;50.27;22.40;;;1.80;99.90;;;;;;5033260;28;20602;-77
2022/01/14 07:41:10;;;;;;;53.60;23.13;;;1.80;99.90;;;;;;5033260;28;20649;-77
2022/01/14 07:43:36;;;;;;;73.17;23.60;;;1.70;99.90;;;;;;5015417;28;20211;-77
2022/01/14 07:46:03;;;;;;;56.83;20.87;;;1.70;99.90;;;;;;5033078;28;20682;-77
2022/01/14 07:48:29;;;;;;;63.50;22.50;;;1.70;99.90;;;;;;5033307;28;20183;-77
2022/01/14 07:50:54;;;;;;;61.13;20.63;;;1.70;99.90;;;;;;5033129;28;20176;-77
2022/01/14 07:53:20;;;;;;;68.23;21.73;;;1.80;99.90;;;;;;5015253;28;20213;-77
2022/01/14 07:55:45;;;;;;;46.40;22.00;;;1.70;99.90;;;;;;5015358;28;20188;-77
2022/01/14 07:58:11;;;;;;;46.93;19.03;;;1.70;99.90;;;;;;5033198;28;20279;-78
2022/01/14 08:00:38;;;;;;;59.50;19.23;;;1.70;99.90;;;;;;5015129;28;20266;-78
2022/01/14 08:03:04;;;;;;;67.53;22.83;;;1.70;99.90;;;;;;5032871;28;20231;-77
2022/01/14 08:05:29;;;;;;;60.53;21.53;;;1.70;99.90;;;;;;5015788;28;20682;-78
2022/01/14 08:07:58;;;;;;;74.20;21.93;;;1.80;99.90;;;;;;5032899;28;20168;-78
2022/01/14 08:10:23;;;;;;;57.13;21.87;;;1.70;99.90;;;;;;5015271;28;20176;-78
2022/01/14 08:12:49;;;;;;;59.60;20.77;;;1.80;99.90;;;;;;5032927;28;20686;-78
2022/01/14 08:15:15;;;;;;;61.67;23.43;;;1.80;99.90;;;;;;5015133;28;20184;-78
2022/01/14 08:17:41;;;;;;;58.20;22.57;;;1.70;99.90;;;;;;5017948;28;20664;-78
2022/01/14 08:20:07;;;;;;;54.80;21.73;;;1.80;99.90;;;;;;5036906;28;20185;-78
2022/01/14 08:22:34;;;;;;;84.93;22.10;;;1.80;99.90;;;;;;5036685;28;20687;-77
2022/01/14 08:25:00;;;;;;;48.67;20.23;;;1.80;99.90;;;;;;5036827;28;20676;-78
2022/01/14 08:27:28;;;;;;;63.43;21.77;;;1.80;99.90;;;;;;5036756;28;20183;-78
2022/01/14 08:29:54;;;;;;;64.33;21.67;;;1.70;99.90;;;;;;5018911;28;20177;-78
2022/01/14 08:32:21;;;;;;;44.50;20.97;;;1.70;99.90;;;;;;5036542;28;20178;-77
2022/01/14 08:34:47;;;;;;;58.80;20.53;;;1.70;99.90;;;;;;5036458;28;20533;-77
2022/01/14 08:37:12;;;;;;;42.17;21.17;;;1.70;99.90;;;;;;5036460;28;20259;-78
2022/01/14 08:39:39;;;;;;;51.80;20.77;;;1.70;99.90;;;;;;5035427;28;20199;-78
2022/01/14 08:42:07;;;;;;;35.67;19.77;;;1.70;99.90;;;;;;5036468;28;20169;-78
2022/01/14 08:44:32;;;;;;;67.60;23.70;;;1.80;99.90;;;;;;5036404;28;20203;-78
2022/01/14 08:46:58;;;;;;;45.73;22.07;;;1.70;99.90;;;;;;5036529;28;20251;-78
2022/01/14 08:49:24;;;;;;;78.33;22.33;;;1.70;99.90;;;;;;5036535;28;20173;-78
2022/01/14 08:51:49;;;;;;;51.97;22.40;;;1.80;99.90;;;;;;5036216;28;20637;-78
2022/01/14 08:54:16;;;;;;;59.10;21.70;;;1.80;99.90;;;;;;5036103;28;20207;-77
2022/01/14 08:56:42;;;;;;;69.27;23.63;;;1.70;99.90;;;;;;5036133;28;20176;-77
2022/01/14 08:59:08;;;;;;;49.23;23.83;;;1.80;99.90;;;;;;5036361;28;20590;-77
2022/01/14 09:01:35;;;;;;;54.90;23.47;;;1.80;99.90;;;;;;5036146;28;20180;-78
2022/01/14 09:04:02;;;;;;;42.43;24.10;;;1.80;99.90;;;;;;5035764;28;20236;-77
2022/01/14 09:06:28;;;;;;;62.20;23.27;;;1.90;99.90;;;;;;5035783;28;20210;-77
2022/01/14 09:08:54;;;;;;;82.97;24.47;;;1.90;99.90;;;;;;5036167;28;20202;-77
2022/01/14 09:11:19;;;;;;;64.97;23.53;;;1.90;99.90;;;;;;5035864;28;20172;-77
2022/01/14 09:13:45;;;;;;;49.57;23.53;;;1.80;99.90;;;;;;5018081;28;20203;-78
2022/01/14 09:16:11;;;;;;;73.37;23.30;;;1.80;99.90;;;;;;5018068;28;20196;-77
2022/01/14 09:18:37;;;;;;;61.10;24.90;;;1.80;99.90;;;;;;5035729;28;20239;-78
2022/01/14 09:21:03;;;;;;;57.13;22.93;;;1.90;99.90;;;;;;5035897;28;20586;-77
2022/01/14 09:23:29;;;;;;;78.67;23.40;;;1.80;99.90;;;;;;5035850;28;20223;-78
2022/01/14 09:25:55;;;;;;;67.60;25.70;;;1.80;99.90;;;;;;5036364;28;20519;-77
2022/01/14 09:28:21;;;;;;;63.47;25.50;;;1.90;99.90;;;;;;5017303;28;20555;-78
2022/01/14 09:30:47;;;;;;;58.13;24.87;;;1.80;99.90;;;;;;5035564;28;20667;-77
2022/01/14 09:33:16;;;;;;;63.57;24.90;;;1.90;99.90;;;;;;5017707;28;20203;-77
2022/01/14 09:35:41;;;;;;;74.97;26.53;;;1.90;99.90;;;;;;5017615;28;20193;-78
2022/01/14 09:38:07;;;;;;;72.10;26.50;;;2.00;99.90;;;;;;5017751;28;20184;-77
2022/01/14 09:40:32;;;;;;;73.00;27.03;;;2.00;99.90;;;;;;5036171;28;20183;-77
2022/01/14 09:43:02;;;;;;;72.50;27.83;;;2.00;99.90;;;;;;5036598;28;20558;-78
2022/01/14 09:45:28;;;;;;;120.17;32.40;;;2.10;99.90;;;;;;5019096;28;20365;-78
2022/01/14 09:47:55;;;;;;;106.37;33.23;;;2.10;99.90;;;;;;5017471;28;20271;-77
2022/01/14 09:50:21;;;;;;;79.67;28.57;;;2.00;99.90;;;;;;5017369;28;20215;-77
2022/01/14 09:52:50;;;;;;;75.37;27.23;;;2.10;99.90;;;;;;5035025;28;20204;-77
2022/01/14 09:55:16;;;;;;;71.63;30.37;;;2.10;99.90;;;;;;5035104;28;20177;-77
2022/01/14 09:57:42;;;;;;;68.90;30.37;;;2.20;99.90;;;;;;5017216;28;20192;-78
2022/01/14 10:00:08;;;;;;;94.10;29.43;;;2.30;99.90;;;;;;5035602;28;20259;-77
2022/01/14 10:02:37;;;;;;;83.83;31.53;;;2.30;99.90;;;;;;5034713;28;20223;-77
2022/01/14 10:05:05;;;;;;;93.60;33.43;;;2.30;99.90;;;;;;5017647;28;20192;-77
2022/01/14 10:07:32;;;;;;;80.83;32.70;;;2.40;99.90;;;;;;5034788;28;20199;-77
2022/01/14 10:10:00;;;;;;;86.10;31.07;;;2.40;99.90;;;;;;5017008;28;20184;-77
2022/01/14 10:12:30;;;;;;;93.57;33.70;;;2.40;99.90;;;;;;5016948;28;20268;-77
2022/01/14 10:15:09;;;;;;;82.90;31.33;;;2.50;99.90;;;;;;5017451;28;20542;-77
2022/01/14 10:17:41;;;;;;;88.43;31.33;;;2.50;99.90;;;;;;5034978;28;20184;-77
2022/01/14 10:20:08;;;;;;;89.30;32.57;;;2.50;99.90;;;;;;5016880;28;20196;-77
2022/01/14 10:22:39;;;;;;;80.03;32.03;;;2.50;99.90;;;;;;5034585;28;20347;-78
2022/01/14 10:25:08;;;;;;;87.53;31.87;;;2.60;99.90;;;;;;5016698;28;20586;-78
2022/01/14 10:27:45;;;;;;;84.73;29.93;;;2.60;99.90;;;;;;5034325;28;20635;-77
2022/01/14 10:30:16;;;;;;;82.63;30.37;;;2.60;99.90;;;;;;5034479;28;20168;-77
2022/01/14 10:32:44;;;;;;;74.47;29.27;;;2.70;99.90;;;;;;5016794;28;20203;-78
2022/01/14 10:35:15;;;;;;;87.17;29.67;;;2.60;99.90;;;;;;5016717;28;20650;-78
2022/01/14 10:37:41;;;;;;;72.43;29.67;;;2.60;99.90;;;;;;5034498;28;20627;-78
2022/01/14 10:40:19;;;;;;;86.20;31.90;;;2.70;99.90;;;;;;5033526;28;20267;-78
2022/01/14 10:42:47;;;;;;;75.07;28.97;;;2.70;99.90;;;;;;5034525;28;20200;-78
2022/01/14 10:45:27;;;;;;;64.30;28.80;;;2.70;99.90;;;;;;5034344;28;20409;-78
2022/01/14 10:47:56;;;;;;;69.90;29.60;;;2.70;99.90;;;;;;5016489;28;20188;-79
2022/01/14 10:50:29;;;;;;;73.40;28.60;;;2.70;99.90;;;;;;5034583;28;20183;-78
2022/01/14 10:52:55;;;;;;;75.03;31.53;;;2.70;99.90;;;;;;5034210;28;20196;-78
2022/01/14 10:55:35;;;;;;;73.77;32.07;;;2.70;99.90;;;;;;5034502;28;20172;-79
2022/01/14 10:58:11;;;;;;;87.43;32.83;;;2.80;99.90;;;;;;5034066;28;20192;-79
2022/01/14 11:00:47;;;;;;;82.63;31.73;;;2.80;99.90;;;;;;5017094;28;20184;-79
2022/01/14 11:03:14;;;;;;;85.40;33.67;;;2.80;99.90;;;;;;5033827;28;20233;-79
2022/01/14 11:05:41;;;;;;;101.10;33.93;;;2.80;99.90;;;;;;5016338;28;20211;-78
2022/01/14 11:08:07;;;;;;;97.30;34.40;;;2.80;99.90;;;;;;5016338;28;20180;-78
2022/01/14 11:10:37;;;;;;;99.50;33.53;;;2.90;99.90;;;;;;5034258;28;20600;-78
2022/01/14 11:13:06;;;;;;;98.50;32.90;;;2.90;99.90;;;;;;5015854;28;20669;-78
2022/01/14 11:15:32;;;;;;;95.70;32.97;;;2.90;99.90;;;;;;5033682;28;20711;-77
2022/01/14 11:18:02;;;;;;;96.30;33.77;;;2.90;99.90;;;;;;5033547;28;20192;-77
2022/01/14 11:20:33;;;;;;;84.87;32.67;;;2.90;99.90;;;;;;5033926;28;20209;-79
2022/01/14 11:23:15;;;;;;;89.50;32.13;;;2.90;99.90;;;;;;5034412;28;20824;-78
2022/01/14 11:26:00;;;;;;;85.23;30.53;;;3.00;99.90;;;;;;5016477;28;20208;-78
2022/01/14 11:28:32;;;;;;;77.00;30.50;;;2.90;99.90;;;;;;5033942;28;20172;-78
2022/01/14 11:30:58;;;;;;;88.47;32.07;;;2.90;99.90;;;;;;5016581;28;20180;-78
2022/01/14 11:33:41;;;;;;;93.47;33.57;;;2.90;99.90;;;;;;5016738;28;20257;-78
2022/01/14 11:36:07;;;;;;;90.53;31.33;;;3.00;99.90;;;;;;5016157;28;20270;-77
2022/01/14 11:38:41;;;;;;;103.17;34.17;;;3.00;99.90;;;;;;5033695;28;20180;-77
2022/01/14 11:41:10;;;;;;;102.40;32.87;;;3.00;99.90;;;;;;5033489;28;20166;-78
2022/01/14 11:43:45;;;;;;;101.10;31.53;;;3.00;99.90;;;;;;5033279;28;20261;-77
2022/01/14 11:46:15;;;;;;;83.43;31.47;;;3.00;99.90;;;;;;5015576;28;20254;-78
2022/01/14 11:48:47;;;;;;;88.27;30.07;;;3.00;99.90;;;;;;5033461;28;20165;-77
2022/01/14 11:51:16;;;;;;;90.57;32.33;;;3.00;99.90;;;;;;5033023;28;20180;-78
2022/01/14 11:53:44;;;;;;;88.87;31.00;;;3.00;99.90;;;;;;5015222;28;20725;-78
2022/01/14 11:56:32;;;;;;;92.63;32.10;;;3.00;99.90;;;;;;5032974;28;20178;-78
2022/01/14 11:59:22;;;;;;;101.73;33.93;;;3.00;99.90;;;;;;5032951;28;20180;-77
2022/01/14 12:01:50;;;;;;;98.67;31.93;;;3.10;99.90;;;;;;5015215;28;20211;-78
2022/01/14 12:04:16;;;;;;;88.23;33.77;;;3.10;99.90;;;;;;5032663;28;20303;-78
2022/01/14 12:06:50;;;;;;;101.80;35.40;;;3.10;99.90;;;;;;5015163;28;20303;-77
2022/01/14 12:09:17;;;;;;;103.40;34.00;;;3.10;99.90;;;;;;5015178;28;20653;-77
2022/01/14 12:11:43;;;;;;;98.53;35.80;;;3.10;99.90;;;;;;5015082;28;20187;-78
2022/01/14 12:14:08;;;;;;;86.63;34.40;;;3.20;99.90;;;;;;5035421;28;20259;-78
2022/01/14 12:16:38;;;;;;;105.63;34.63;;;3.10;99.90;;;;;;5036416;28;20179;-78
2022/01/14 12:19:05;;;;;;;101.90;34.67;;;3.20;99.90;;;;;;5018601;28;20184;-79
2022/01/14 12:21:48;;;;;;;102.50;35.10;;;3.20;99.90;;;;;;5036148;28;20184;-79
2022/01/14 12:24:21;;;;;;;103.20;36.57;;;3.20;99.90;;;;;;5018936;28;20203;-79
2022/01/14 12:27:00;;;;;;;101.30;34.90;;;3.20;99.90;;;;;;5035408;28;20211;-79
2022/01/14 12:29:32;;;;;;;103.23;34.70;;;3.20;99.90;;;;;;5035744;28;20168;-79
2022/01/14 12:32:08;;;;;;;98.40;35.03;;;3.20;99.90;;;;;;5035461;28;20180;-79
2022/01/14 12:34:39;;;;;;;107.97;34.07;;;3.20;99.90;;;;;;5015994;28;20176;-78
2022/01/14 12:37:07;;;;;;;101.63;33.10;;;3.30;99.90;;;;;;5034279;28;20569;-78
2022/01/14 12:39:33;;;;;;;102.23;34.27;;;3.20;99.90;;;;;;5035546;28;20271;-79
2022/01/14 12:42:00;;;;;;;96.53;33.90;;;3.20;99.90;;;;;;5035184;28;20547;-79
2022/01/14 12:44:26;;;;;;;100.80;35.57;;;3.30;99.90;;;;;;5035161;28;20203;-78
2022/01/14 12:47:06;;;;;;;111.60;36.17;;;3.30;99.90;;;;;;5024794;28;20299;-79
2022/01/14 12:49:39;;;;;;;112.40;34.83;;;3.30;99.90;;;;;;5030677;28;20204;-79
2022/01/14 12:52:10;;;;;;;122.10;36.37;;;3.30;99.90;;;;;;5039260;28;20204;-78
2022/01/14 12:54:37;;;;;;;112.77;37.17;;;3.30;99.90;;;;;;5015408;28;20185;-77